Terminal Aerodrome Forecast
Issued by NWS

Home | Current Version | Previous Version | Graphics & Text | Print | Product List | Glossary On
Versions: 1 2 3 4 5 6 7 8 9 10 11 12 13 14 15
000
FTUS42 KMHX 171730
TAFPGV
TAF
KPGV 171730Z 1718/1818 17010KT 6SM SHRA VCTS SCT020 OVC045CB
     FM172300 17005KT P6SM VCSH OVC030
     FM180600 18005KT P6SM BKN015
      AMD LTD TO CLD VIS AND WIND=

USA.gov is the U.S. government's official web portal to all federal, state and local government web resources and services.